sensor_id;sensor_type;location;lat;lon;timestamp;pressure;altitude;pressure_sealevel;temperature;humidity
27980;BME280;15315;50.836;4.430;2023-02-11T00:07:32;103052.56;;;10.22;100.00
27980;BME280;15315;50.836;4.430;2023-02-11T00:17:33;103045.06;;;10.04;100.00
27980;BME280;15315;50.836;4.430;2023-02-11T00:27:33;103038.19;;;9.94;100.00
27980;BME280;15315;50.836;4.430;2023-02-11T00:37:35;103041.19;;;9.83;100.00
27980;BME280;15315;50.836;4.430;2023-02-11T00:47:36;103046.53;;;9.54;100.00
27980;BME280;15315;50.836;4.430;2023-02-11T00:57:36;103030.22;;;8.96;100.00
27980;BME280;15315;50.836;4.430;2023-02-11T01:07:36;102992.00;;;9.48;100.00
27980;BME280;15315;50.836;4.430;2023-02-11T01:17:37;103000.66;;;9.59;100.00
27980;BME280;15315;50.836;4.430;2023-02-11T01:27:37;103009.03;;;9.77;100.00
27980;BME280;15315;50.836;4.430;2023-02-11T01:37:38;103009.28;;;9.70;100.00
27980;BME280;15315;50.836;4.430;2023-02-11T01:47:38;103013.09;;;9.92;100.00
27980;BME280;15315;50.836;4.430;2023-02-11T01:57:41;103005.94;;;9.91;100.00
27980;BME280;15315;50.836;4.430;2023-02-11T02:07:53;103012.50;;;9.52;100.00
27980;BME280;15315;50.836;4.430;2023-02-11T02:38:30;103002.16;;;9.69;100.00
27980;BME280;15315;50.836;4.430;2023-02-11T02:48:32;102985.88;;;9.43;100.00
27980;BME280;15315;50.836;4.430;2023-02-11T03:08:57;102986.88;;;9.69;100.00
27980;BME280;15315;50.836;4.430;2023-02-11T03:19:07;102975.63;;;9.84;100.00
27980;BME280;15315;50.836;4.430;2023-02-11T03:29:53;102980.84;;;10.17;100.00
27980;BME280;15315;50.836;4.430;2023-02-11T03:39:59;102974.25;;;9.99;100.00
27980;BME280;15315;50.836;4.430;2023-02-11T03:50:04;102969.88;;;10.51;100.00
27980;BME280;15315;50.836;4.430;2023-02-11T04:00:06;102975.81;;;10.86;100.00
27980;BME280;15315;50.836;4.430;2023-02-11T04:10:07;102972.19;;;10.61;100.00
27980;BME280;15315;50.836;4.430;2023-02-11T04:20:09;102988.00;;;10.72;100.00
27980;BME280;15315;50.836;4.430;2023-02-11T04:30:10;102991.16;;;10.84;100.00
27980;BME280;15315;50.836;4.430;2023-02-11T04:40:10;102995.84;;;11.04;100.00
27980;BME280;15315;50.836;4.430;2023-02-11T04:50:11;103008.84;;;10.93;100.00
27980;BME280;15315;50.836;4.430;2023-02-11T05:00:12;102988.03;;;10.96;100.00
27980;BME280;15315;50.836;4.430;2023-02-11T05:10:12;102980.09;;;10.41;100.00
27980;BME280;15315;50.836;4.430;2023-02-11T05:20:13;102978.81;;;9.97;100.00
27980;BME280;15315;50.836;4.430;2023-02-11T05:30:13;102960.88;;;9.96;100.00
27980;BME280;15315;50.836;4.430;2023-02-11T05:40:14;102958.06;;;9.71;100.00
27980;BME280;15315;50.836;4.430;2023-02-11T05:50:15;102942.53;;;10.35;100.00
27980;BME280;15315;50.836;4.430;2023-02-11T06:00:15;102950.38;;;10.42;100.00
27980;BME280;15315;50.836;4.430;2023-02-11T06:10:16;102959.47;;;10.65;100.00
27980;BME280;15315;50.836;4.430;2023-02-11T06:20:16;102951.50;;;10.35;100.00
27980;BME280;15315;50.836;4.430;2023-02-11T06:30:17;102955.94;;;10.87;100.00
27980;BME280;15315;50.836;4.430;2023-02-11T06:40:18;102950.81;;;10.55;100.00
27980;BME280;15315;50.836;4.430;2023-02-11T06:50:18;102955.41;;;11.02;100.00
27980;BME280;15315;50.836;4.430;2023-02-11T07:00:19;102949.25;;;10.99;100.00
27980;BME280;15315;50.836;4.430;2023-02-11T07:10:19;102954.59;;;10.76;100.00
27980;BME280;15315;50.836;4.430;2023-02-11T07:20:19;102969.25;;;11.41;100.00
27980;BME280;15315;50.836;4.430;2023-02-11T07:30:20;102990.78;;;11.20;100.00
27980;BME280;15315;50.836;4.430;2023-02-11T07:40:20;102988.91;;;10.97;100.00
27980;BME280;15315;50.836;4.430;2023-02-11T07:50:21;102999.84;;;11.42;100.00
27980;BME280;15315;50.836;4.430;2023-02-11T08:00:21;103020.47;;;11.20;100.00
27980;BME280;15315;50.836;4.430;2023-02-11T08:10:22;103016.44;;;11.06;100.00
27980;BME280;15315;50.836;4.430;2023-02-11T08:20:22;103025.38;;;11.08;100.00
27980;BME280;15315;50.836;4.430;2023-02-11T08:30:22;103037.88;;;11.11;100.00
27980;BME280;15315;50.836;4.430;2023-02-11T08:40:26;103049.41;;;10.90;100.00
27980;BME280;15315;50.836;4.430;2023-02-11T08:50:29;103057.47;;;11.41;100.00
27980;BME280;15315;50.836;4.430;2023-02-11T09:00:34;103060.84;;;11.95;100.00
27980;BME280;15315;50.836;4.430;2023-02-11T09:10:35;103070.47;;;11.79;100.00
27980;BME280;15315;50.836;4.430;2023-02-11T09:20:36;103077.25;;;12.14;100.00
27980;BME280;15315;50.836;4.430;2023-02-11T09:30:37;103086.19;;;11.93;100.00
27980;BME280;15315;50.836;4.430;2023-02-11T09:40:42;103077.75;;;12.02;100.00
27980;BME280;15315;50.836;4.430;2023-02-11T09:50:56;103080.00;;;12.12;100.00
27980;BME280;15315;50.836;4.430;2023-02-11T10:22:19;103095.34;;;12.35;100.00
27980;BME280;15315;50.836;4.430;2023-02-11T10:33:05;103117.63;;;12.18;100.00
27980;BME280;15315;50.836;4.430;2023-02-11T10:43:16;103105.44;;;12.53;100.00
27980;BME280;15315;50.836;4.430;2023-02-11T10:53:19;103114.47;;;12.75;100.00
27980;BME280;15315;50.836;4.430;2023-02-11T11:03:22;103117.72;;;12.38;100.00
27980;BME280;15315;50.836;4.430;2023-02-11T11:23:27;103115.88;;;12.84;100.00
27980;BME280;15315;50.836;4.430;2023-02-11T11:33:32;103112.16;;;12.86;100.00
27980;BME280;15315;50.836;4.430;2023-02-11T11:43:33;103120.28;;;12.86;100.00
27980;BME280;15315;50.836;4.430;2023-02-11T11:53:56;103113.00;;;12.67;100.00
27980;BME280;15315;50.836;4.430;2023-02-11T12:25:03;103118.94;;;13.38;100.00
27980;BME280;15315;50.836;4.430;2023-02-11T12:55:47;103117.03;;;13.40;100.00
27980;BME280;15315;50.836;4.430;2023-02-11T13:05:52;103100.41;;;13.70;100.00
27980;BME280;15315;50.836;4.430;2023-02-11T13:16:03;103102.59;;;12.99;100.00
27980;BME280;15315;50.836;4.430;2023-02-11T13:26:29;103085.75;;;13.33;100.00
27980;BME280;15315;50.836;4.430;2023-02-11T13:36:31;103086.31;;;13.62;100.00
27980;BME280;15315;50.836;4.430;2023-02-11T13:46:56;103076.94;;;13.69;100.00
27980;BME280;15315;50.836;4.430;2023-02-11T14:17:41;103077.16;;;13.64;100.00
27980;BME280;15315;50.836;4.430;2023-02-11T14:38:12;103079.09;;;13.40;100.00
27980;BME280;15315;50.836;4.430;2023-02-11T14:48:18;103073.44;;;13.26;100.00
27980;BME280;15315;50.836;4.430;2023-02-11T14:58:20;103077.00;;;14.06;100.00
27980;BME280;15315;50.836;4.430;2023-02-11T15:08:21;103074.50;;;13.83;100.00
27980;BME280;15315;50.836;4.430;2023-02-11T15:18:25;103086.41;;;13.79;100.00
27980;BME280;15315;50.836;4.430;2023-02-11T15:28:30;103082.53;;;13.84;100.00
27980;BME280;15315;50.836;4.430;2023-02-11T15:38:31;103077.06;;;14.04;100.00
27980;BME280;15315;50.836;4.430;2023-02-11T15:48:51;103087.47;;;13.95;100.00
27980;BME280;15315;50.836;4.430;2023-02-11T15:58:54;103096.25;;;13.81;100.00
27980;BME280;15315;50.836;4.430;2023-02-11T16:09:24;103093.16;;;13.89;100.00
27980;BME280;15315;50.836;4.430;2023-02-11T16:19:26;103097.22;;;14.17;100.00
27980;BME280;15315;50.836;4.430;2023-02-11T16:29:29;103112.78;;;13.95;100.00
27980;BME280;15315;50.836;4.430;2023-02-11T16:39:29;103114.38;;;13.99;100.00
27980;BME280;15315;50.836;4.430;2023-02-11T16:49:40;103114.16;;;13.85;100.00
27980;BME280;15315;50.836;4.430;2023-02-11T16:59:42;103125.94;;;13.84;100.00
27980;BME280;15315;50.836;4.430;2023-02-11T17:09:45;103133.25;;;13.82;100.00
27980;BME280;15315;50.836;4.430;2023-02-11T17:19:45;103137.81;;;13.62;100.00
27980;BME280;15315;50.836;4.430;2023-02-11T17:29:46;103144.34;;;13.36;100.00
27980;BME280;15315;50.836;4.430;2023-02-11T17:39:48;103153.41;;;13.77;100.00
27980;BME280;15315;50.836;4.430;2023-02-11T17:49:48;103162.28;;;13.80;100.00
27980;BME280;15315;50.836;4.430;2023-02-11T17:59:49;103161.19;;;13.64;100.00
27980;BME280;15315;50.836;4.430;2023-02-11T18:09:49;103178.91;;;13.73;100.00
27980;BME280;15315;50.836;4.430;2023-02-11T18:19:53;103180.59;;;13.75;100.00
27980;BME280;15315;50.836;4.430;2023-02-11T18:29:53;103195.63;;;13.82;100.00
27980;BME280;15315;50.836;4.430;2023-02-11T18:39:54;103200.63;;;13.91;100.00
27980;BME280;15315;50.836;4.430;2023-02-11T18:49:54;103197.31;;;14.05;100.00
27980;BME280;15315;50.836;4.430;2023-02-11T18:59:55;103193.72;;;14.04;100.00
27980;BME280;15315;50.836;4.430;2023-02-11T19:09:55;103208.72;;;13.93;100.00
27980;BME280;15315;50.836;4.430;2023-02-11T19:19:56;103214.72;;;13.99;100.00
27980;BME280;15315;50.836;4.430;2023-02-11T19:29:56;103213.03;;;13.97;100.00
27980;BME280;15315;50.836;4.430;2023-02-11T19:39:57;103222.81;;;14.01;100.00
27980;BME280;15315;50.836;4.430;2023-02-11T19:49:57;103225.03;;;13.71;100.00
27980;BME280;15315;50.836;4.430;2023-02-11T19:59:58;103230.88;;;13.62;100.00
27980;BME280;15315;50.836;4.430;2023-02-11T20:09:58;103235.72;;;13.76;100.00
27980;BME280;15315;50.836;4.430;2023-02-11T20:19:59;103237.41;;;13.78;100.00
27980;BME280;15315;50.836;4.430;2023-02-11T20:29:59;103235.16;;;13.68;100.00
27980;BME280;15315;50.836;4.430;2023-02-11T20:39:59;103238.41;;;13.96;100.00
27980;BME280;15315;50.836;4.430;2023-02-11T20:50:00;103246.56;;;13.96;100.00
27980;BME280;15315;50.836;4.430;2023-02-11T21:00:01;103255.03;;;14.08;100.00
27980;BME280;15315;50.836;4.430;2023-02-11T21:10:02;103274.53;;;13.96;100.00
27980;BME280;15315;50.836;4.430;2023-02-11T21:20:03;103270.97;;;13.96;100.00
27980;BME280;15315;50.836;4.430;2023-02-11T21:30:05;103291.69;;;13.97;100.00
27980;BME280;15315;50.836;4.430;2023-02-11T21:40:06;103285.59;;;13.92;100.00
27980;BME280;15315;50.836;4.430;2023-02-11T21:50:07;103279.22;;;13.93;100.00
27980;BME280;15315;50.836;4.430;2023-02-11T22:00:08;103291.03;;;13.48;100.00
27980;BME280;15315;50.836;4.430;2023-02-11T22:10:09;103289.72;;;13.80;100.00
27980;BME280;15315;50.836;4.430;2023-02-11T22:20:10;103291.22;;;12.05;100.00
27980;BME280;15315;50.836;4.430;2023-02-11T22:30:11;103294.41;;;12.16;100.00
27980;BME280;15315;50.836;4.430;2023-02-11T22:40:12;103293.44;;;12.89;100.00
27980;BME280;15315;50.836;4.430;2023-02-11T22:50:16;103296.19;;;12.42;100.00
27980;BME280;15315;50.836;4.430;2023-02-11T23:00:20;103291.50;;;11.43;100.00
27980;BME280;15315;50.836;4.430;2023-02-11T23:10:20;103297.91;;;12.19;100.00
27980;BME280;15315;50.836;4.430;2023-02-11T23:20:21;103313.28;;;12.67;94.31
27980;BME280;15315;50.836;4.430;2023-02-11T23:30:21;103311.31;;;12.47;93.64
27980;BME280;15315;50.836;4.430;2023-02-11T23:40:21;103308.22;;;12.33;89.58
27980;BME280;15315;50.836;4.430;2023-02-11T23:50:22;103313.41;;;12.39;87.63
